sensor_id;sensor_type;location;lat;lon;timestamp;temperature;humidity
51855;DHT22;37895;53.240;6.572;2023-08-24T00:02:01;16.40;99.90
51855;DHT22;37895;53.240;6.572;2023-08-24T00:04:27;16.40;99.90
51855;DHT22;37895;53.240;6.572;2023-08-24T00:06:54;16.40;99.90
51855;DHT22;37895;53.240;6.572;2023-08-24T00:09:19;16.40;99.90
51855;DHT22;37895;53.240;6.572;2023-08-24T00:11:45;16.30;99.90
51855;DHT22;37895;53.240;6.572;2023-08-24T00:14:11;16.30;99.90
51855;DHT22;37895;53.240;6.572;2023-08-24T00:16:37;16.30;99.90
51855;DHT22;37895;53.240;6.572;2023-08-24T00:19:03;16.40;99.90
51855;DHT22;37895;53.240;6.572;2023-08-24T00:21:29;16.30;99.90
51855;DHT22;37895;53.240;6.572;2023-08-24T00:23:54;16.30;99.90
51855;DHT22;37895;53.240;6.572;2023-08-24T00:26:20;16.30;99.90
51855;DHT22;37895;53.240;6.572;2023-08-24T00:28:46;16.30;99.90
51855;DHT22;37895;53.240;6.572;2023-08-24T00:31:12;16.30;99.90
51855;DHT22;37895;53.240;6.572;2023-08-24T00:33:37;16.30;99.90
51855;DHT22;37895;53.240;6.572;2023-08-24T00:36:06;16.30;99.90
51855;DHT22;37895;53.240;6.572;2023-08-24T00:38:32;16.30;99.90
51855;DHT22;37895;53.240;6.572;2023-08-24T00:40:58;16.30;99.90
51855;DHT22;37895;53.240;6.572;2023-08-24T00:43:27;16.30;99.90
51855;DHT22;37895;53.240;6.572;2023-08-24T00:45:59;16.30;99.90
51855;DHT22;37895;53.240;6.572;2023-08-24T00:48:26;16.30;99.90
51855;DHT22;37895;53.240;6.572;2023-08-24T00:50:55;16.40;99.90
51855;DHT22;37895;53.240;6.572;2023-08-24T00:53:25;16.40;99.90
51855;DHT22;37895;53.240;6.572;2023-08-24T00:55:52;16.40;99.90
51855;DHT22;37895;53.240;6.572;2023-08-24T00:58:17;16.50;99.90
51855;DHT22;37895;53.240;6.572;2023-08-24T01:00:45;16.50;99.90
51855;DHT22;37895;53.240;6.572;2023-08-24T01:03:10;16.50;99.90
51855;DHT22;37895;53.240;6.572;2023-08-24T01:05:36;16.40;99.90
51855;DHT22;37895;53.240;6.572;2023-08-24T01:08:02;16.40;99.90
51855;DHT22;37895;53.240;6.572;2023-08-24T01:10:36;16.40;99.90
51855;DHT22;37895;53.240;6.572;2023-08-24T01:13:08;16.40;99.90
51855;DHT22;37895;53.240;6.572;2023-08-24T01:15:38;16.40;99.90
51855;DHT22;37895;53.240;6.572;2023-08-24T01:18:12;16.40;99.90
51855;DHT22;37895;53.240;6.572;2023-08-24T01:20:40;16.40;99.90
51855;DHT22;37895;53.240;6.572;2023-08-24T01:25:42;16.40;99.90
51855;DHT22;37895;53.240;6.572;2023-08-24T01:28:13;16.40;99.90
51855;DHT22;37895;53.240;6.572;2023-08-24T01:30:39;16.40;99.90
51855;DHT22;37895;53.240;6.572;2023-08-24T01:33:05;16.40;99.90
51855;DHT22;37895;53.240;6.572;2023-08-24T01:35:31;16.40;99.90
51855;DHT22;37895;53.240;6.572;2023-08-24T01:37:59;16.40;99.90
51855;DHT22;37895;53.240;6.572;2023-08-24T01:43:06;16.30;99.90
51855;DHT22;37895;53.240;6.572;2023-08-24T01:45:32;16.30;99.90
51855;DHT22;37895;53.240;6.572;2023-08-24T01:48:03;16.30;99.90
51855;DHT22;37895;53.240;6.572;2023-08-24T01:50:30;16.30;99.90
51855;DHT22;37895;53.240;6.572;2023-08-24T01:52:57;16.30;99.90
51855;DHT22;37895;53.240;6.572;2023-08-24T01:55:23;16.30;99.90
51855;DHT22;37895;53.240;6.572;2023-08-24T01:57:49;16.30;99.90
51855;DHT22;37895;53.240;6.572;2023-08-24T02:00:15;16.30;99.90
51855;DHT22;37895;53.240;6.572;2023-08-24T02:02:42;16.30;99.90
51855;DHT22;37895;53.240;6.572;2023-08-24T02:05:08;16.30;99.90
51855;DHT22;37895;53.240;6.572;2023-08-24T02:07:33;16.30;99.90
51855;DHT22;37895;53.240;6.572;2023-08-24T02:09:59;16.30;99.90
51855;DHT22;37895;53.240;6.572;2023-08-24T02:12:24;16.20;99.90
51855;DHT22;37895;53.240;6.572;2023-08-24T02:14:50;16.20;99.90
51855;DHT22;37895;53.240;6.572;2023-08-24T02:17:16;16.20;99.90
51855;DHT22;37895;53.240;6.572;2023-08-24T02:19:41;16.30;99.90
51855;DHT22;37895;53.240;6.572;2023-08-24T02:22:07;16.30;99.90
51855;DHT22;37895;53.240;6.572;2023-08-24T02:24:33;16.30;99.90
51855;DHT22;37895;53.240;6.572;2023-08-24T02:26:59;16.30;99.90
51855;DHT22;37895;53.240;6.572;2023-08-24T02:29:25;16.40;99.90
51855;DHT22;37895;53.240;6.572;2023-08-24T02:31:51;16.40;99.90
51855;DHT22;37895;53.240;6.572;2023-08-24T02:34:17;16.40;99.90
51855;DHT22;37895;53.240;6.572;2023-08-24T02:36:43;16.40;99.90
51855;DHT22;37895;53.240;6.572;2023-08-24T02:39:08;16.40;99.90
51855;DHT22;37895;53.240;6.572;2023-08-24T02:41:34;16.40;99.90
51855;DHT22;37895;53.240;6.572;2023-08-24T02:44:01;16.40;99.90
51855;DHT22;37895;53.240;6.572;2023-08-24T02:46:27;16.50;99.90
51855;DHT22;37895;53.240;6.572;2023-08-24T02:48:53;16.50;99.90
51855;DHT22;37895;53.240;6.572;2023-08-24T02:51:21;16.50;99.90
51855;DHT22;37895;53.240;6.572;2023-08-24T02:53:47;16.50;99.90
51855;DHT22;37895;53.240;6.572;2023-08-24T02:56:13;16.50;99.90
51855;DHT22;37895;53.240;6.572;2023-08-24T02:58:39;16.50;99.90
51855;DHT22;37895;53.240;6.572;2023-08-24T03:01:05;16.60;99.90
51855;DHT22;37895;53.240;6.572;2023-08-24T03:03:33;16.60;99.90
51855;DHT22;37895;53.240;6.572;2023-08-24T03:06:01;16.60;99.90
51855;DHT22;37895;53.240;6.572;2023-08-24T03:08:27;16.60;99.90
51855;DHT22;37895;53.240;6.572;2023-08-24T03:10:53;16.70;99.90
51855;DHT22;37895;53.240;6.572;2023-08-24T03:13:19;16.70;99.90
51855;DHT22;37895;53.240;6.572;2023-08-24T03:15:45;16.70;99.90
51855;DHT22;37895;53.240;6.572;2023-08-24T03:18:15;16.70;99.90
51855;DHT22;37895;53.240;6.572;2023-08-24T03:20:41;16.60;99.90
51855;DHT22;37895;53.240;6.572;2023-08-24T03:23:07;16.60;99.90
51855;DHT22;37895;53.240;6.572;2023-08-24T03:25:36;16.60;99.90
51855;DHT22;37895;53.240;6.572;2023-08-24T03:28:03;16.50;99.90
51855;DHT22;37895;53.240;6.572;2023-08-24T03:30:29;16.50;99.90
51855;DHT22;37895;53.240;6.572;2023-08-24T03:32:55;16.40;99.90
51855;DHT22;37895;53.240;6.572;2023-08-24T03:35:21;16.40;99.90
51855;DHT22;37895;53.240;6.572;2023-08-24T03:37:47;16.30;99.90
51855;DHT22;37895;53.240;6.572;2023-08-24T03:40:12;16.30;99.90
51855;DHT22;37895;53.240;6.572;2023-08-24T03:42:38;16.40;99.90
51855;DHT22;37895;53.240;6.572;2023-08-24T03:45:05;16.40;99.90
51855;DHT22;37895;53.240;6.572;2023-08-24T03:47:31;16.40;99.90
51855;DHT22;37895;53.240;6.572;2023-08-24T03:49:56;16.40;99.90
51855;DHT22;37895;53.240;6.572;2023-08-24T03:52:22;16.50;99.90
51855;DHT22;37895;53.240;6.572;2023-08-24T03:54:48;16.60;99.90
51855;DHT22;37895;53.240;6.572;2023-08-24T03:57:14;16.50;99.90
51855;DHT22;37895;53.240;6.572;2023-08-24T03:59:40;16.60;99.90
51855;DHT22;37895;53.240;6.572;2023-08-24T04:02:06;16.60;99.90
51855;DHT22;37895;53.240;6.572;2023-08-24T04:04:32;16.60;99.90
51855;DHT22;37895;53.240;6.572;2023-08-24T04:06:57;16.60;99.90
51855;DHT22;37895;53.240;6.572;2023-08-24T04:09:23;16.60;99.90
51855;DHT22;37895;53.240;6.572;2023-08-24T04:11:49;16.60;99.90
51855;DHT22;37895;53.240;6.572;2023-08-24T04:14:15;16.60;99.90
51855;DHT22;37895;53.240;6.572;2023-08-24T04:16:40;16.60;99.90
51855;DHT22;37895;53.240;6.572;2023-08-24T04:19:07;16.60;99.90
51855;DHT22;37895;53.240;6.572;2023-08-24T04:21:33;16.60;99.90
51855;DHT22;37895;53.240;6.572;2023-08-24T04:23:59;16.50;99.90
51855;DHT22;37895;53.240;6.572;2023-08-24T04:26:24;16.50;99.90
51855;DHT22;37895;53.240;6.572;2023-08-24T04:28:50;16.50;99.90
51855;DHT22;37895;53.240;6.572;2023-08-24T04:31:16;16.50;99.90
51855;DHT22;37895;53.240;6.572;2023-08-24T04:33:41;16.50;99.90
51855;DHT22;37895;53.240;6.572;2023-08-24T04:36:07;16.50;99.90
51855;DHT22;37895;53.240;6.572;2023-08-24T04:38:33;16.50;99.90
51855;DHT22;37895;53.240;6.572;2023-08-24T04:40:58;16.40;99.90
51855;DHT22;37895;53.240;6.572;2023-08-24T04:43:24;16.40;99.90
51855;DHT22;37895;53.240;6.572;2023-08-24T04:45:52;16.30;99.90
51855;DHT22;37895;53.240;6.572;2023-08-24T04:48:18;16.30;99.90
51855;DHT22;37895;53.240;6.572;2023-08-24T04:50:45;16.20;99.90
51855;DHT22;37895;53.240;6.572;2023-08-24T04:53:14;16.20;99.90
51855;DHT22;37895;53.240;6.572;2023-08-24T04:55:40;16.20;99.90
51855;DHT22;37895;53.240;6.572;2023-08-24T04:58:06;16.20;99.90
51855;DHT22;37895;53.240;6.572;2023-08-24T05:00:32;16.10;99.90
51855;DHT22;37895;53.240;6.572;2023-08-24T05:02:59;16.10;99.90
51855;DHT22;37895;53.240;6.572;2023-08-24T05:05:24;16.10;99.90
51855;DHT22;37895;53.240;6.572;2023-08-24T05:07:50;16.10;99.90
51855;DHT22;37895;53.240;6.572;2023-08-24T05:10:16;16.10;99.90
51855;DHT22;37895;53.240;6.572;2023-08-24T05:12:41;16.10;99.90
51855;DHT22;37895;53.240;6.572;2023-08-24T05:15:07;16.00;99.90
51855;DHT22;37895;53.240;6.572;2023-08-24T05:17:33;16.10;99.90
51855;DHT22;37895;53.240;6.572;2023-08-24T05:19:59;16.10;99.90
51855;DHT22;37895;53.240;6.572;2023-08-24T05:22:24;16.10;99.90
51855;DHT22;37895;53.240;6.572;2023-08-24T05:24:50;16.20;99.90
51855;DHT22;37895;53.240;6.572;2023-08-24T05:27:16;16.20;99.90
51855;DHT22;37895;53.240;6.572;2023-08-24T05:29:42;16.30;99.90
51855;DHT22;37895;53.240;6.572;2023-08-24T05:32:11;16.30;99.90
51855;DHT22;37895;53.240;6.572;2023-08-24T05:34:37;16.40;99.90
51855;DHT22;37895;53.240;6.572;2023-08-24T05:37:02;16.40;99.90
51855;DHT22;37895;53.240;6.572;2023-08-24T05:39:28;16.50;99.90
51855;DHT22;37895;53.240;6.572;2023-08-24T05:41:53;16.50;99.90
51855;DHT22;37895;53.240;6.572;2023-08-24T05:44:19;16.70;99.90
51855;DHT22;37895;53.240;6.572;2023-08-24T05:46:47;16.70;99.90
51855;DHT22;37895;53.240;6.572;2023-08-24T05:49:13;16.70;99.90
51855;DHT22;37895;53.240;6.572;2023-08-24T05:51:38;16.80;99.90
51855;DHT22;37895;53.240;6.572;2023-08-24T05:54:05;16.90;99.90
51855;DHT22;37895;53.240;6.572;2023-08-24T05:56:30;16.90;99.90
51855;DHT22;37895;53.240;6.572;2023-08-24T05:58:58;16.90;99.90
51855;DHT22;37895;53.240;6.572;2023-08-24T06:01:24;16.90;99.90
51855;DHT22;37895;53.240;6.572;2023-08-24T06:03:50;16.90;99.90
51855;DHT22;37895;53.240;6.572;2023-08-24T06:06:16;17.00;99.90
51855;DHT22;37895;53.240;6.572;2023-08-24T06:08:42;17.00;99.90
51855;DHT22;37895;53.240;6.572;2023-08-24T06:11:08;17.10;99.90
51855;DHT22;37895;53.240;6.572;2023-08-24T06:13:34;17.20;99.90
51855;DHT22;37895;53.240;6.572;2023-08-24T06:15:59;17.20;99.90
51855;DHT22;37895;53.240;6.572;2023-08-24T06:18:25;17.40;99.90
51855;DHT22;37895;53.240;6.572;2023-08-24T06:20:51;17.40;99.90
51855;DHT22;37895;53.240;6.572;2023-08-24T06:23:17;17.50;99.90
51855;DHT22;37895;53.240;6.572;2023-08-24T06:25:43;17.60;99.90
51855;DHT22;37895;53.240;6.572;2023-08-24T06:28:09;17.60;99.90
51855;DHT22;37895;53.240;6.572;2023-08-24T06:30:38;17.60;99.90
51855;DHT22;37895;53.240;6.572;2023-08-24T06:33:05;17.70;99.90
51855;DHT22;37895;53.240;6.572;2023-08-24T06:35:35;17.70;99.90
51855;DHT22;37895;53.240;6.572;2023-08-24T06:38:01;17.70;99.90
51855;DHT22;37895;53.240;6.572;2023-08-24T06:40:27;17.70;99.90
51855;DHT22;37895;53.240;6.572;2023-08-24T06:42:53;17.70;99.90
51855;DHT22;37895;53.240;6.572;2023-08-24T06:45:19;17.80;99.90
51855;DHT22;37895;53.240;6.572;2023-08-24T06:47:44;17.80;99.90
51855;DHT22;37895;53.240;6.572;2023-08-24T06:50:11;17.80;99.90
51855;DHT22;37895;53.240;6.572;2023-08-24T06:52:36;17.90;99.90
51855;DHT22;37895;53.240;6.572;2023-08-24T06:55:02;17.90;99.90
51855;DHT22;37895;53.240;6.572;2023-08-24T06:57:29;18.00;99.90
51855;DHT22;37895;53.240;6.572;2023-08-24T06:59:54;18.00;99.90
51855;DHT22;37895;53.240;6.572;2023-08-24T07:02:20;18.10;99.90
51855;DHT22;37895;53.240;6.572;2023-08-24T07:04:46;18.10;99.90
51855;DHT22;37895;53.240;6.572;2023-08-24T07:07:12;18.10;99.90
51855;DHT22;37895;53.240;6.572;2023-08-24T07:09:37;18.20;99.90
51855;DHT22;37895;53.240;6.572;2023-08-24T07:12:03;18.30;99.90
51855;DHT22;37895;53.240;6.572;2023-08-24T07:14:32;18.30;99.90
51855;DHT22;37895;53.240;6.572;2023-08-24T07:16:58;18.40;99.90
51855;DHT22;37895;53.240;6.572;2023-08-24T07:19:24;18.40;99.90
51855;DHT22;37895;53.240;6.572;2023-08-24T07:21:49;18.50;99.90
51855;DHT22;37895;53.240;6.572;2023-08-24T07:24:15;18.50;99.90
51855;DHT22;37895;53.240;6.572;2023-08-24T07:26:41;18.60;99.90
51855;DHT22;37895;53.240;6.572;2023-08-24T07:29:08;18.60;99.90
51855;DHT22;37895;53.240;6.572;2023-08-24T07:31:34;18.70;99.90
51855;DHT22;37895;53.240;6.572;2023-08-24T07:33:59;18.70;99.90
51855;DHT22;37895;53.240;6.572;2023-08-24T07:36:25;18.80;99.90
51855;DHT22;37895;53.240;6.572;2023-08-24T07:38:51;18.90;99.90
51855;DHT22;37895;53.240;6.572;2023-08-24T07:41:16;18.90;99.90
51855;DHT22;37895;53.240;6.572;2023-08-24T07:43:43;19.00;99.90
51855;DHT22;37895;53.240;6.572;2023-08-24T07:46:09;19.00;99.90
51855;DHT22;37895;53.240;6.572;2023-08-24T07:48:35;19.10;99.90
51855;DHT22;37895;53.240;6.572;2023-08-24T07:51:01;19.20;99.90
51855;DHT22;37895;53.240;6.572;2023-08-24T07:53:27;19.30;99.90
51855;DHT22;37895;53.240;6.572;2023-08-24T07:55:54;19.30;99.90
51855;DHT22;37895;53.240;6.572;2023-08-24T07:58:24;19.40;99.90
51855;DHT22;37895;53.240;6.572;2023-08-24T08:00:50;19.50;99.90
51855;DHT22;37895;53.240;6.572;2023-08-24T08:03:18;19.50;99.90
51855;DHT22;37895;53.240;6.572;2023-08-24T08:05:44;19.60;99.90
51855;DHT22;37895;53.240;6.572;2023-08-24T08:08:09;19.60;99.90
51855;DHT22;37895;53.240;6.572;2023-08-24T08:10:35;19.70;99.90
51855;DHT22;37895;53.240;6.572;2023-08-24T08:13:01;19.80;99.90
51855;DHT22;37895;53.240;6.572;2023-08-24T08:15:26;19.70;99.90
51855;DHT22;37895;53.240;6.572;2023-08-24T08:17:52;19.90;99.90
51855;DHT22;37895;53.240;6.572;2023-08-24T08:20:18;19.90;99.90
51855;DHT22;37895;53.240;6.572;2023-08-24T08:22:44;19.90;99.90
51855;DHT22;37895;53.240;6.572;2023-08-24T08:25:10;20.00;99.90
51855;DHT22;37895;53.240;6.572;2023-08-24T08:27:37;20.10;99.90
51855;DHT22;37895;53.240;6.572;2023-08-24T08:30:03;20.20;99.90
51855;DHT22;37895;53.240;6.572;2023-08-24T08:32:32;20.20;99.90
51855;DHT22;37895;53.240;6.572;2023-08-24T08:34:57;20.30;99.90
51855;DHT22;37895;53.240;6.572;2023-08-24T08:37:25;20.40;99.90
51855;DHT22;37895;53.240;6.572;2023-08-24T08:39:51;20.40;99.90
51855;DHT22;37895;53.240;6.572;2023-08-24T08:42:16;20.50;99.90
51855;DHT22;37895;53.240;6.572;2023-08-24T08:44:45;20.50;99.90
51855;DHT22;37895;53.240;6.572;2023-08-24T08:47:14;20.60;99.90
51855;DHT22;37895;53.240;6.572;2023-08-24T08:49:42;20.70;99.90
51855;DHT22;37895;53.240;6.572;2023-08-24T08:52:09;20.80;99.90
51855;DHT22;37895;53.240;6.572;2023-08-24T08:54:35;20.90;99.90
51855;DHT22;37895;53.240;6.572;2023-08-24T08:57:01;21.00;99.90
51855;DHT22;37895;53.240;6.572;2023-08-24T08:59:30;21.10;99.90
51855;DHT22;37895;53.240;6.572;2023-08-24T09:02:01;21.10;99.90
51855;DHT22;37895;53.240;6.572;2023-08-24T09:04:29;21.20;99.90
51855;DHT22;37895;53.240;6.572;2023-08-24T09:06:55;21.20;99.90
51855;DHT22;37895;53.240;6.572;2023-08-24T09:09:21;21.20;99.90
51855;DHT22;37895;53.240;6.572;2023-08-24T09:11:50;21.30;99.90
51855;DHT22;37895;53.240;6.572;2023-08-24T09:14:16;21.40;99.90
51855;DHT22;37895;53.240;6.572;2023-08-24T09:16:42;21.50;99.90
51855;DHT22;37895;53.240;6.572;2023-08-24T09:19:11;21.60;99.90
51855;DHT22;37895;53.240;6.572;2023-08-24T09:21:40;21.80;99.90
51855;DHT22;37895;53.240;6.572;2023-08-24T09:24:07;21.90;99.90
51855;DHT22;37895;53.240;6.572;2023-08-24T09:26:37;22.10;99.90
51855;DHT22;37895;53.240;6.572;2023-08-24T09:29:12;22.30;99.90
51855;DHT22;37895;53.240;6.572;2023-08-24T09:31:39;22.50;99.90
51855;DHT22;37895;53.240;6.572;2023-08-24T09:34:06;22.60;99.90
51855;DHT22;37895;53.240;6.572;2023-08-24T09:36:36;22.70;99.90
51855;DHT22;37895;53.240;6.572;2023-08-24T09:39:03;22.80;99.90
51855;DHT22;37895;53.240;6.572;2023-08-24T09:41:38;22.90;99.90
51855;DHT22;37895;53.240;6.572;2023-08-24T09:44:05;22.90;99.90
51855;DHT22;37895;53.240;6.572;2023-08-24T09:46:31;22.90;99.90
51855;DHT22;37895;53.240;6.572;2023-08-24T09:48:56;23.00;99.90
51855;DHT22;37895;53.240;6.572;2023-08-24T09:51:26;23.00;99.90
51855;DHT22;37895;53.240;6.572;2023-08-24T09:53:53;23.00;99.90
51855;DHT22;37895;53.240;6.572;2023-08-24T09:56:23;23.00;99.90
51855;DHT22;37895;53.240;6.572;2023-08-24T09:58:51;23.00;99.90
51855;DHT22;37895;53.240;6.572;2023-08-24T10:01:19;23.10;99.90
51855;DHT22;37895;53.240;6.572;2023-08-24T10:03:46;23.10;99.90
51855;DHT22;37895;53.240;6.572;2023-08-24T10:06:13;23.10;99.90
51855;DHT22;37895;53.240;6.572;2023-08-24T10:08:43;23.10;99.90
51855;DHT22;37895;53.240;6.572;2023-08-24T10:11:16;23.00;99.90
51855;DHT22;37895;53.240;6.572;2023-08-24T10:16:44;23.00;99.90
51855;DHT22;37895;53.240;6.572;2023-08-24T10:19:13;23.00;99.90
51855;DHT22;37895;53.240;6.572;2023-08-24T10:21:39;22.90;99.90
51855;DHT22;37895;53.240;6.572;2023-08-24T10:24:06;22.90;99.90
51855;DHT22;37895;53.240;6.572;2023-08-24T10:26:34;22.90;99.90
51855;DHT22;37895;53.240;6.572;2023-08-24T10:29:00;22.80;99.90
51855;DHT22;37895;53.240;6.572;2023-08-24T10:31:26;22.80;99.90
51855;DHT22;37895;53.240;6.572;2023-08-24T10:33:52;22.80;99.90
51855;DHT22;37895;53.240;6.572;2023-08-24T10:36:19;22.80;99.90
51855;DHT22;37895;53.240;6.572;2023-08-24T10:38:44;22.70;99.90
51855;DHT22;37895;53.240;6.572;2023-08-24T10:41:10;22.70;99.90
51855;DHT22;37895;53.240;6.572;2023-08-24T10:43:48;22.70;99.90
51855;DHT22;37895;53.240;6.572;2023-08-24T10:46:15;22.70;99.90
51855;DHT22;37895;53.240;6.572;2023-08-24T10:53:59;22.60;99.90
51855;DHT22;37895;53.240;6.572;2023-08-24T10:56:36;22.50;99.90
51855;DHT22;37895;53.240;6.572;2023-08-24T10:59:16;22.50;99.90
51855;DHT22;37895;53.240;6.572;2023-08-24T11:02:01;22.50;99.90
51855;DHT22;37895;53.240;6.572;2023-08-24T11:04:29;22.40;99.90
51855;DHT22;37895;53.240;6.572;2023-08-24T11:06:55;22.40;99.90
51855;DHT22;37895;53.240;6.572;2023-08-24T11:09:22;22.30;99.90
51855;DHT22;37895;53.240;6.572;2023-08-24T11:12:02;22.30;99.90
51855;DHT22;37895;53.240;6.572;2023-08-24T11:14:29;22.40;99.90
51855;DHT22;37895;53.240;6.572;2023-08-24T11:17:20;22.30;99.90
51855;DHT22;37895;53.240;6.572;2023-08-24T11:19:55;22.30;99.90
51855;DHT22;37895;53.240;6.572;2023-08-24T11:22:21;22.30;99.90
51855;DHT22;37895;53.240;6.572;2023-08-24T11:24:47;22.30;99.90
51855;DHT22;37895;53.240;6.572;2023-08-24T11:27:13;22.30;99.90
51855;DHT22;37895;53.240;6.572;2023-08-24T11:29:38;22.30;99.90
51855;DHT22;37895;53.240;6.572;2023-08-24T11:32:04;22.30;99.90
51855;DHT22;37895;53.240;6.572;2023-08-24T11:34:30;22.30;99.90
51855;DHT22;37895;53.240;6.572;2023-08-24T11:36:56;22.30;99.90
51855;DHT22;37895;53.240;6.572;2023-08-24T11:39:22;22.30;99.90
51855;DHT22;37895;53.240;6.572;2023-08-24T11:42:03;22.30;99.90
51855;DHT22;37895;53.240;6.572;2023-08-24T11:44:30;22.30;99.90
51855;DHT22;37895;53.240;6.572;2023-08-24T11:46:57;22.40;99.90
51855;DHT22;37895;53.240;6.572;2023-08-24T11:49:23;22.40;99.90
51855;DHT22;37895;53.240;6.572;2023-08-24T11:51:50;22.50;99.90
51855;DHT22;37895;53.240;6.572;2023-08-24T11:54:18;22.50;99.90
51855;DHT22;37895;53.240;6.572;2023-08-24T11:56:44;22.60;99.90
51855;DHT22;37895;53.240;6.572;2023-08-24T11:59:16;22.70;99.90
51855;DHT22;37895;53.240;6.572;2023-08-24T12:01:42;22.80;99.90
51855;DHT22;37895;53.240;6.572;2023-08-24T12:04:08;22.90;99.90
51855;DHT22;37895;53.240;6.572;2023-08-24T12:06:34;22.90;99.90
51855;DHT22;37895;53.240;6.572;2023-08-24T12:09:00;22.90;99.90
51855;DHT22;37895;53.240;6.572;2023-08-24T12:11:28;23.00;99.90
51855;DHT22;37895;53.240;6.572;2023-08-24T12:13:54;23.00;99.90
51855;DHT22;37895;53.240;6.572;2023-08-24T12:16:22;23.10;99.90
51855;DHT22;37895;53.240;6.572;2023-08-24T12:18:56;23.10;99.90
51855;DHT22;37895;53.240;6.572;2023-08-24T12:21:24;23.20;99.90
51855;DHT22;37895;53.240;6.572;2023-08-24T12:24:00;23.20;99.90
51855;DHT22;37895;53.240;6.572;2023-08-24T12:26:27;23.20;99.90
51855;DHT22;37895;53.240;6.572;2023-08-24T12:28:59;23.20;99.90
51855;DHT22;37895;53.240;6.572;2023-08-24T12:31:28;23.20;99.90
51855;DHT22;37895;53.240;6.572;2023-08-24T12:34:07;23.20;99.90
51855;DHT22;37895;53.240;6.572;2023-08-24T12:36:37;23.20;99.90
51855;DHT22;37895;53.240;6.572;2023-08-24T12:39:05;23.20;99.90
51855;DHT22;37895;53.240;6.572;2023-08-24T12:41:31;23.30;99.90
51855;DHT22;37895;53.240;6.572;2023-08-24T12:43:57;23.30;99.90
51855;DHT22;37895;53.240;6.572;2023-08-24T12:46:23;23.30;99.90
51855;DHT22;37895;53.240;6.572;2023-08-24T12:48:50;23.30;99.90
51855;DHT22;37895;53.240;6.572;2023-08-24T12:51:16;23.40;99.90
51855;DHT22;37895;53.240;6.572;2023-08-24T12:53:41;23.40;99.90
51855;DHT22;37895;53.240;6.572;2023-08-24T12:56:07;23.50;99.90
51855;DHT22;37895;53.240;6.572;2023-08-24T12:58:33;23.50;99.90
51855;DHT22;37895;53.240;6.572;2023-08-24T13:00:59;23.50;99.90
51855;DHT22;37895;53.240;6.572;2023-08-24T13:03:25;23.60;99.90
51855;DHT22;37895;53.240;6.572;2023-08-24T13:05:51;23.60;99.90
51855;DHT22;37895;53.240;6.572;2023-08-24T13:08:16;23.50;99.90
51855;DHT22;37895;53.240;6.572;2023-08-24T13:10:42;23.50;99.90
51855;DHT22;37895;53.240;6.572;2023-08-24T13:13:08;23.50;99.90
51855;DHT22;37895;53.240;6.572;2023-08-24T13:15:33;23.40;99.90
51855;DHT22;37895;53.240;6.572;2023-08-24T13:17:59;23.40;99.90
51855;DHT22;37895;53.240;6.572;2023-08-24T13:20:24;23.40;99.90
51855;DHT22;37895;53.240;6.572;2023-08-24T13:22:52;23.30;99.90
51855;DHT22;37895;53.240;6.572;2023-08-24T13:25:18;23.20;99.90
51855;DHT22;37895;53.240;6.572;2023-08-24T13:27:43;23.20;99.90
51855;DHT22;37895;53.240;6.572;2023-08-24T13:30:09;23.10;99.90
51855;DHT22;37895;53.240;6.572;2023-08-24T13:32:35;23.00;99.90
51855;DHT22;37895;53.240;6.572;2023-08-24T13:35:02;22.90;99.90
51855;DHT22;37895;53.240;6.572;2023-08-24T13:37:27;22.90;99.90
51855;DHT22;37895;53.240;6.572;2023-08-24T13:39:53;22.80;99.90
51855;DHT22;37895;53.240;6.572;2023-08-24T13:42:19;22.80;99.90
51855;DHT22;37895;53.240;6.572;2023-08-24T13:44:45;22.80;99.90
51855;DHT22;37895;53.240;6.572;2023-08-24T13:47:11;22.80;99.90
51855;DHT22;37895;53.240;6.572;2023-08-24T13:49:37;22.80;99.90
51855;DHT22;37895;53.240;6.572;2023-08-24T13:52:03;22.90;99.90
51855;DHT22;37895;53.240;6.572;2023-08-24T13:54:28;22.80;99.90
51855;DHT22;37895;53.240;6.572;2023-08-24T13:56:55;22.90;99.90
51855;DHT22;37895;53.240;6.572;2023-08-24T13:59:21;23.00;99.90
51855;DHT22;37895;53.240;6.572;2023-08-24T14:01:47;23.00;99.90
51855;DHT22;37895;53.240;6.572;2023-08-24T14:04:13;23.00;99.90
51855;DHT22;37895;53.240;6.572;2023-08-24T14:06:39;23.00;99.90
51855;DHT22;37895;53.240;6.572;2023-08-24T14:09:05;23.00;99.90
51855;DHT22;37895;53.240;6.572;2023-08-24T14:11:31;23.00;99.90
51855;DHT22;37895;53.240;6.572;2023-08-24T14:13:57;23.00;99.90
51855;DHT22;37895;53.240;6.572;2023-08-24T14:16:23;23.00;99.90
51855;DHT22;37895;53.240;6.572;2023-08-24T14:18:48;23.00;99.90
51855;DHT22;37895;53.240;6.572;2023-08-24T14:21:15;22.90;99.90
51855;DHT22;37895;53.240;6.572;2023-08-24T14:23:41;22.90;99.90
51855;DHT22;37895;53.240;6.572;2023-08-24T14:26:07;22.90;99.90
51855;DHT22;37895;53.240;6.572;2023-08-24T14:31:14;22.90;99.90
51855;DHT22;37895;53.240;6.572;2023-08-24T14:33:40;22.80;99.90
51855;DHT22;37895;53.240;6.572;2023-08-24T14:36:06;22.80;99.90
51855;DHT22;37895;53.240;6.572;2023-08-24T14:38:31;22.70;99.90
51855;DHT22;37895;53.240;6.572;2023-08-24T14:40:57;22.60;99.90
51855;DHT22;37895;53.240;6.572;2023-08-24T14:43:27;22.60;99.90
51855;DHT22;37895;53.240;6.572;2023-08-24T14:45:54;22.60;99.90
51855;DHT22;37895;53.240;6.572;2023-08-24T14:48:19;22.60;99.90
51855;DHT22;37895;53.240;6.572;2023-08-24T14:50:45;22.60;99.90
51855;DHT22;37895;53.240;6.572;2023-08-24T14:53:10;22.60;99.90
51855;DHT22;37895;53.240;6.572;2023-08-24T14:55:39;22.70;99.90
51855;DHT22;37895;53.240;6.572;2023-08-24T14:58:05;22.70;99.90
51855;DHT22;37895;53.240;6.572;2023-08-24T15:00:31;22.80;99.90
51855;DHT22;37895;53.240;6.572;2023-08-24T15:02:57;22.70;99.90
51855;DHT22;37895;53.240;6.572;2023-08-24T15:05:23;22.70;99.90
51855;DHT22;37895;53.240;6.572;2023-08-24T15:07:49;22.80;99.90
51855;DHT22;37895;53.240;6.572;2023-08-24T15:10:15;22.80;99.90
51855;DHT22;37895;53.240;6.572;2023-08-24T15:12:43;22.80;99.90
51855;DHT22;37895;53.240;6.572;2023-08-24T15:15:09;22.90;99.90
51855;DHT22;37895;53.240;6.572;2023-08-24T15:17:35;22.90;99.90
51855;DHT22;37895;53.240;6.572;2023-08-24T15:20:02;22.80;99.90
51855;DHT22;37895;53.240;6.572;2023-08-24T15:22:31;22.80;99.90
51855;DHT22;37895;53.240;6.572;2023-08-24T15:24:57;22.80;99.90
51855;DHT22;37895;53.240;6.572;2023-08-24T15:27:24;22.80;99.90
51855;DHT22;37895;53.240;6.572;2023-08-24T15:29:50;22.70;99.90
51855;DHT22;37895;53.240;6.572;2023-08-24T15:32:17;22.80;99.90
51855;DHT22;37895;53.240;6.572;2023-08-24T15:34:43;22.80;99.90
51855;DHT22;37895;53.240;6.572;2023-08-24T15:37:08;22.90;99.90
51855;DHT22;37895;53.240;6.572;2023-08-24T15:39:38;22.90;99.90
51855;DHT22;37895;53.240;6.572;2023-08-24T15:42:05;22.90;99.90
51855;DHT22;37895;53.240;6.572;2023-08-24T15:44:31;23.00;99.90